Portada
METAR-TAF:

METAR-TAF

Aeroports :

Aeroport de Madrid-Barajas

Madrid, Espanya

latitud: 40-27N, longitud: 003-33W, altitud: 609 m

Observació

L'informe es va fer fa 42 minuts, a les 19:30 UTC
Vent 4 kt del Nord-Oest
Temperatura 6°C
Humitat 75%
Pressió 1017 hPa
Visibilitat 10 km o més
Núvols disperses a una alçada de 4000 ft

METAR: LEMD 221930Z 31004KT 9999 SCT040 06/02 Q1017 NOSIG

Hora: 21:12 (20:12 UTC)

Pronòstic

L'informe es va fer fa 3 hores i 12 minuts, a les 17:00 UTC
Pronòstic vàlid del 22 a les 18 UTC al 23 a les 24 UTC
Vent 7 kt del Nord-Est
Visibilitat 10 km o més
Núvols disperses a una alçada de 3000 ft
Cel ennuvolat a una alçada de 5000 ft
Probabilitat 30% :
Temporalment
l' 22 a les 18 UTC al 22 a les 24 UTC
pluja
Probabilitat 40%
l' 23 a les 05 UTC al 23 a les 11 UTC
Visibilitat: 2500 m
Cel ennuvolat a una alçada de 1200 ft
boira en bancs

TAF: LEMD 221700Z 2218/2324 05007KT 9999 SCT030 BKN050 TX13/2315Z TN00/2306Z PROB30 TEMPO 2218/2224 RA PROB40 2305/2311 2500 BCFG BKN012

Observacions i pronòstics meteorològics de més de 4000 aeroports (METAR i TAF).

Les estacions disponibles són els punts grocs i vermells al mapa.

Posi el ratolí al punt desitjat per veure el nom de l'estació.

Feu clic per veure les observacions i els pronòstics meteorològics.

Per canviar el mapa: feu clic els botons verds amb una creu de color negre per apropar; al botó verd amb un guió per allunyar la imatge; o en les fletxes verdes per a mapes adjacents.


METAR-TAF: